createdAt,value
2023-02-17T00:00:32.213Z,1004.027450412
2023-02-17T00:01:32.262Z,1003.925859048
2023-02-17T00:02:32.232Z,1004.027450412
2023-02-17T00:03:32.227Z,1003.925859048
2023-02-17T00:04:32.263Z,1004.1290417760001
2023-02-17T00:05:32.320Z,1004.1290417760001
2023-02-17T00:06:32.263Z,1003.8242676840001
2023-02-17T00:07:32.257Z,1004.1290417760001
2023-02-17T00:08:32.213Z,1004.027450412
2023-02-17T00:09:32.236Z,1004.1290417760001
2023-02-17T00:10:32.300Z,1004.027450412
2023-02-17T00:11:32.249Z,1004.027450412
2023-02-17T00:12:32.241Z,1003.72267632
2023-02-17T00:13:32.250Z,1003.8242676840001
2023-02-17T00:14:32.220Z,1003.925859048
2023-02-17T00:15:32.323Z,1003.925859048
2023-02-17T00:16:32.198Z,1003.925859048
2023-02-17T00:17:32.281Z,1003.925859048
2023-02-17T00:18:32.207Z,1003.72267632
2023-02-17T00:19:32.260Z,1003.72267632
2023-02-17T00:20:32.231Z,1003.925859048
2023-02-17T00:21:32.268Z,1003.8242676840001
2023-02-17T00:22:32.248Z,1004.1290417760001
2023-02-17T00:23:32.217Z,1003.8242676840001
2023-02-17T00:24:32.246Z,1003.8242676840001
2023-02-17T00:25:32.244Z,1003.925859048
2023-02-17T00:26:32.213Z,1003.8242676840001
2023-02-17T00:27:32.219Z,1003.925859048
2023-02-17T00:28:32.197Z,1003.5194935919999
2023-02-17T00:29:32.239Z,1003.621084956
2023-02-17T00:30:32.228Z,1003.621084956
2023-02-17T00:31:32.391Z,1003.621084956
2023-02-17T00:32:32.224Z,1003.72267632
2023-02-17T00:33:32.230Z,1003.5194935919999
2023-02-17T00:34:32.206Z,1003.621084956
2023-02-17T00:35:32.238Z,1003.417902228
2023-02-17T00:36:32.198Z,1003.72267632
2023-02-17T00:37:32.231Z,1003.72267632
2023-02-17T00:38:32.339Z,1003.5194935919999
2023-02-17T00:39:32.255Z,1003.621084956
2023-02-17T00:40:32.204Z,1003.621084956
2023-02-17T00:41:32.232Z,1003.621084956
2023-02-17T00:42:32.292Z,1003.621084956
2023-02-17T00:43:32.237Z,1003.621084956
2023-02-17T00:44:32.231Z,1003.417902228
2023-02-17T00:45:32.218Z,1003.5194935919999
2023-02-17T00:46:32.275Z,1003.621084956
2023-02-17T00:47:32.241Z,1003.5194935919999
2023-02-17T00:48:32.320Z,1003.621084956
2023-02-17T00:49:32.237Z,1003.417902228
2023-02-17T00:50:32.257Z,1003.621084956
2023-02-17T00:51:32.229Z,1003.417902228
2023-02-17T00:52:32.220Z,1003.72267632
2023-02-17T00:53:32.292Z,1003.621084956
2023-02-17T00:54:32.239Z,1003.621084956
2023-02-17T00:55:32.236Z,1003.72267632
2023-02-17T00:56:32.225Z,1003.316310864
2023-02-17T00:57:32.403Z,1003.5194935919999
2023-02-17T00:58:32.260Z,1003.5194935919999
2023-02-17T00:59:32.250Z,1003.621084956
2023-02-17T01:00:32.266Z,1003.621084956
2023-02-17T01:01:32.426Z,1003.621084956
2023-02-17T01:02:32.252Z,1003.621084956
2023-02-17T01:03:32.222Z,1003.5194935919999
2023-02-17T01:04:32.274Z,1003.621084956
2023-02-17T01:05:32.218Z,1003.316310864
2023-02-17T01:06:32.246Z,1003.417902228
2023-02-17T01:07:32.265Z,1003.316310864
2023-02-17T01:08:32.233Z,1003.5194935919999
2023-02-17T01:09:32.230Z,1003.621084956
2023-02-17T01:10:32.261Z,1003.5194935919999
2023-02-17T01:11:32.236Z,1003.316310864
2023-02-17T01:12:32.208Z,1003.5194935919999
2023-02-17T01:13:32.216Z,1003.417902228
2023-02-17T01:14:32.246Z,1003.417902228
2023-02-17T01:15:32.238Z,1003.5194935919999
2023-02-17T01:16:32.226Z,1003.5194935919999
2023-02-17T01:17:32.267Z,1003.621084956
2023-02-17T01:18:32.221Z,1003.5194935919999
2023-02-17T01:19:32.230Z,1003.5194935919999
2023-02-17T01:20:32.217Z,1003.417902228
2023-02-17T01:21:32.248Z,1003.316310864
2023-02-17T01:22:32.359Z,1003.5194935919999
2023-02-17T01:23:32.233Z,1003.621084956
2023-02-17T01:24:32.260Z,1003.5194935919999
2023-02-17T01:25:32.217Z,1003.5194935919999
2023-02-17T01:26:32.253Z,1003.5194935919999
2023-02-17T01:27:32.221Z,1003.621084956
2023-02-17T01:28:32.197Z,1003.417902228
2023-02-17T01:29:32.214Z,1003.621084956
2023-02-17T01:30:32.322Z,1003.417902228
2023-02-17T01:31:32.350Z,1003.72267632
2023-02-17T01:32:32.208Z,1003.5194935919999
2023-02-17T01:33:32.207Z,1003.5194935919999
2023-02-17T01:34:32.237Z,1003.5194935919999
2023-02-17T01:35:32.261Z,1003.621084956
2023-02-17T01:36:32.206Z,1003.621084956
2023-02-17T01:37:32.196Z,1003.72267632
2023-02-17T01:38:32.218Z,1003.316310864
2023-02-17T01:39:32.270Z,1003.417902228
2023-02-17T01:40:32.411Z,1003.5194935919999
2023-02-17T01:41:32.330Z,1003.72267632
2023-02-17T01:42:32.327Z,1003.5194935919999
2023-02-17T01:43:32.377Z,1003.621084956
2023-02-17T01:44:32.404Z,1003.417902228
2023-02-17T01:45:32.362Z,1003.621084956
2023-02-17T01:46:32.420Z,1003.417902228
2023-02-17T01:47:32.332Z,1003.316310864
2023-02-17T01:48:32.381Z,1003.5194935919999
2023-02-17T01:49:32.373Z,1003.5194935919999
2023-02-17T01:50:32.322Z,1003.621084956
2023-02-17T01:51:32.452Z,1003.417902228
2023-02-17T01:52:32.373Z,1003.5194935919999
2023-02-17T01:53:32.302Z,1003.5194935919999
2023-02-17T01:54:32.362Z,1003.417902228
2023-02-17T01:55:32.357Z,1003.5194935919999
2023-02-17T01:56:32.366Z,1003.621084956
2023-02-17T01:57:32.228Z,1003.316310864
2023-02-17T01:58:32.203Z,1003.417902228
2023-02-17T01:59:32.244Z,1003.417902228
2023-02-17T02:00:32.286Z,1003.316310864
2023-02-17T02:01:32.291Z,1003.621084956
2023-02-17T02:02:32.359Z,1003.316310864
2023-02-17T02:03:32.303Z,1003.011536772
2023-02-17T02:04:32.227Z,1003.316310864
2023-02-17T02:05:32.239Z,1003.113128136
2023-02-17T02:06:32.254Z,1003.316310864
2023-02-17T02:07:32.229Z,1003.316310864
2023-02-17T02:08:32.212Z,1003.113128136
2023-02-17T02:09:32.188Z,1003.316310864
2023-02-17T02:10:32.252Z,1003.316310864
2023-02-17T02:11:32.246Z,1003.316310864
2023-02-17T02:12:32.221Z,1003.316310864
2023-02-17T02:13:32.225Z,1003.2147194999999
2023-02-17T02:14:32.225Z,1003.316310864
2023-02-17T02:15:32.248Z,1003.316310864
2023-02-17T02:16:32.265Z,1003.2147194999999
2023-02-17T02:17:32.243Z,1003.417902228
2023-02-17T02:18:32.200Z,1003.113128136
2023-02-17T02:19:32.261Z,1002.9099454079999
2023-02-17T02:20:32.245Z,1003.011536772
2023-02-17T02:21:32.213Z,1003.113128136
2023-02-17T02:22:32.223Z,1003.2147194999999
2023-02-17T02:23:32.354Z,1003.2147194999999
2023-02-17T02:24:32.254Z,1003.113128136
2023-02-17T02:25:32.215Z,1003.011536772
2023-02-17T02:26:32.226Z,1003.113128136
2023-02-17T02:27:32.231Z,1003.011536772
2023-02-17T02:28:32.212Z,1003.011536772
2023-02-17T02:29:32.226Z,1002.808354044
2023-02-17T02:30:32.204Z,1003.113128136
2023-02-17T02:31:32.289Z,1003.113128136
2023-02-17T02:32:32.271Z,1003.011536772
2023-02-17T02:33:32.301Z,1002.9099454079999
2023-02-17T02:34:32.230Z,1003.011536772
2023-02-17T02:35:32.227Z,1002.9099454079999
2023-02-17T02:36:32.207Z,1003.113128136
2023-02-17T02:37:32.213Z,1003.113128136
2023-02-17T02:38:32.247Z,1003.011536772
2023-02-17T02:39:32.246Z,1002.9099454079999
2023-02-17T02:40:32.219Z,1002.808354044
2023-02-17T02:41:32.208Z,1003.011536772
2023-02-17T02:42:32.205Z,1003.011536772
2023-02-17T02:43:32.228Z,1002.808354044
2023-02-17T02:44:32.751Z,1002.9099454079999
2023-02-17T02:45:32.305Z,1002.808354044
2023-02-17T02:46:32.197Z,1002.9099454079999
2023-02-17T02:47:32.258Z,1002.808354044
2023-02-17T02:48:32.208Z,1002.808354044
2023-02-17T02:49:32.241Z,1002.70676268
2023-02-17T02:50:32.218Z,1002.70676268
2023-02-17T02:51:32.227Z,1002.70676268
2023-02-17T02:52:32.227Z,1002.6390351040001
2023-02-17T02:53:32.230Z,1002.70676268
2023-02-17T02:54:32.230Z,1002.808354044
2023-02-17T02:55:32.250Z,1002.808354044
2023-02-17T02:56:32.232Z,1002.6390351040001
2023-02-17T02:57:32.242Z,1002.5374437400001
2023-02-17T02:58:32.216Z,1002.6390351040001
2023-02-17T02:59:32.245Z,1002.5374437400001
2023-02-17T03:00:32.249Z,1002.70676268
2023-02-17T03:01:32.212Z,1002.6390351040001
2023-02-17T03:02:32.215Z,1002.70676268
2023-02-17T03:03:32.543Z,1002.6390351040001
2023-02-17T03:04:32.222Z,1002.6390351040001
2023-02-17T03:05:32.275Z,1002.435852376
2023-02-17T03:06:32.243Z,1002.5374437400001
2023-02-17T03:07:32.252Z,1002.5374437400001
2023-02-17T03:08:32.236Z,1002.70676268
2023-02-17T03:09:32.213Z,1002.435852376
2023-02-17T03:10:32.193Z,1002.6390351040001
2023-02-17T03:11:32.429Z,1002.5374437400001
2023-02-17T03:12:32.269Z,1002.435852376
2023-02-17T03:13:32.200Z,1002.5374437400001
2023-02-17T03:14:32.286Z,1002.5374437400001
2023-02-17T03:15:32.245Z,1002.5374437400001
2023-02-17T03:16:32.385Z,1002.232669648
2023-02-17T03:17:32.375Z,1002.435852376
2023-02-17T03:18:32.337Z,1002.6390351040001
2023-02-17T03:19:32.332Z,1002.435852376
2023-02-17T03:20:32.246Z,1002.6390351040001
2023-02-17T03:21:32.285Z,1002.435852376
2023-02-17T03:22:32.234Z,1002.5374437400001
2023-02-17T03:23:32.242Z,1002.435852376
2023-02-17T03:24:32.210Z,1002.232669648
2023-02-17T03:25:32.302Z,1002.435852376
2023-02-17T03:26:32.214Z,1002.3342610120001
2023-02-17T03:27:32.226Z,1002.5374437400001
2023-02-17T03:28:32.623Z,1002.435852376
2023-02-17T03:29:32.205Z,1002.5374437400001
2023-02-17T03:30:32.277Z,1002.435852376
2023-02-17T03:31:32.452Z,1002.435852376
2023-02-17T03:32:32.334Z,1002.3342610120001
2023-02-17T03:33:32.315Z,1002.435852376
2023-02-17T03:34:32.283Z,1002.3342610120001
2023-02-17T03:35:32.305Z,1002.3342610120001
2023-02-17T03:36:32.317Z,1002.435852376
2023-02-17T03:37:32.355Z,1002.3342610120001
2023-02-17T03:38:32.390Z,1002.3342610120001
2023-02-17T03:39:32.326Z,1002.3342610120001
2023-02-17T03:40:32.314Z,1002.435852376
2023-02-17T03:41:32.245Z,1002.5374437400001
2023-02-17T03:42:32.267Z,1002.3342610120001
2023-02-17T03:43:32.240Z,1002.232669648
2023-02-17T03:44:32.294Z,1002.435852376
2023-02-17T03:45:32.254Z,1002.3342610120001
2023-02-17T03:46:32.313Z,1002.435852376
2023-02-17T03:47:32.345Z,1002.232669648
2023-02-17T03:48:32.338Z,1002.3342610120001
2023-02-17T03:49:32.319Z,1002.3342610120001
2023-02-17T03:50:32.366Z,1002.435852376
2023-02-17T03:51:32.259Z,1002.5374437400001
2023-02-17T03:52:32.222Z,1002.435852376
2023-02-17T03:53:32.221Z,1002.232669648
2023-02-17T03:54:32.247Z,1002.131078284
2023-02-17T03:55:32.219Z,1002.3342610120001
2023-02-17T03:56:32.183Z,1002.3342610120001
2023-02-17T03:57:32.221Z,1002.5374437400001
2023-02-17T03:58:32.216Z,1002.232669648
2023-02-17T03:59:32.238Z,1002.232669648
2023-02-17T04:00:32.214Z,1002.3342610120001
2023-02-17T04:01:32.299Z,1002.3342610120001
2023-02-17T04:02:32.226Z,1002.3342610120001
2023-02-17T04:03:32.191Z,1002.435852376
2023-02-17T04:04:32.215Z,1002.232669648
2023-02-17T04:05:32.255Z,1002.232669648
2023-02-17T04:06:32.288Z,1002.232669648
2023-02-17T04:07:32.224Z,1002.232669648
2023-02-17T04:08:32.261Z,1002.3342610120001
2023-02-17T04:09:32.217Z,1002.435852376
2023-02-17T04:10:32.240Z,1002.3342610120001
2023-02-17T04:11:32.213Z,1002.3342610120001
2023-02-17T04:12:32.197Z,1002.435852376
2023-02-17T04:13:32.206Z,1002.3342610120001
2023-02-17T04:14:32.257Z,1002.5374437400001
2023-02-17T04:15:32.267Z,1002.232669648
2023-02-17T04:16:32.209Z,1002.232669648
2023-02-17T04:17:32.210Z,1002.0294869200001
2023-02-17T04:18:32.221Z,1002.232669648
2023-02-17T04:19:32.225Z,1002.232669648
2023-02-17T04:20:32.211Z,1002.0294869200001
2023-02-17T04:21:32.187Z,1002.131078284
2023-02-17T04:22:32.254Z,1001.927895556
2023-02-17T04:23:32.239Z,1002.131078284
2023-02-17T04:24:32.222Z,1002.0294869200001
2023-02-17T04:25:32.185Z,1002.131078284
2023-02-17T04:26:32.219Z,1001.927895556
2023-02-17T04:27:32.212Z,1002.0294869200001
2023-02-17T04:28:32.218Z,1002.0294869200001
2023-02-17T04:29:32.238Z,1001.826304192
2023-02-17T04:30:32.326Z,1001.927895556
2023-02-17T04:31:32.308Z,1001.826304192
2023-02-17T04:32:32.181Z,1001.724712828
2023-02-17T04:33:32.232Z,1001.826304192
2023-02-17T04:34:32.207Z,1001.724712828
2023-02-17T04:35:32.195Z,1001.724712828
2023-02-17T04:36:32.245Z,1001.5215301
2023-02-17T04:37:32.213Z,1001.623121464
2023-02-17T04:38:32.297Z,1001.826304192
2023-02-17T04:39:32.198Z,1001.5215301
2023-02-17T04:40:32.225Z,1001.5215301
2023-02-17T04:41:32.203Z,1001.826304192
2023-02-17T04:42:32.355Z,1001.5215301
2023-02-17T04:43:32.225Z,1001.623121464
2023-02-17T04:44:32.213Z,1001.623121464
2023-02-17T04:45:32.229Z,1001.724712828
2023-02-17T04:46:32.264Z,1001.724712828
2023-02-17T04:47:32.182Z,1001.826304192
2023-02-17T04:48:32.250Z,1001.623121464
2023-02-17T04:49:32.211Z,1001.623121464
2023-02-17T04:50:32.176Z,1001.724712828
2023-02-17T04:51:32.198Z,1001.5215301
2023-02-17T04:52:32.234Z,1001.724712828
2023-02-17T04:53:32.204Z,1001.5215301
2023-02-17T04:54:32.198Z,1001.623121464
2023-02-17T04:55:32.193Z,1001.5215301
2023-02-17T04:56:32.235Z,1001.623121464
2023-02-17T04:57:32.176Z,1001.5215301
2023-02-17T04:58:32.181Z,1001.623121464
2023-02-17T04:59:32.186Z,1001.419938736
2023-02-17T05:00:32.221Z,1001.724712828
2023-02-17T05:01:32.334Z,1001.623121464
2023-02-17T05:02:32.201Z,1001.419938736
2023-02-17T05:03:32.196Z,1001.5215301
2023-02-17T05:04:32.285Z,1001.724712828
2023-02-17T05:05:32.260Z,1001.5215301
2023-02-17T05:06:32.192Z,1001.5215301
2023-02-17T05:07:32.348Z,1001.5215301
2023-02-17T05:08:32.224Z,1001.5215301
2023-02-17T05:09:32.201Z,1001.5215301
2023-02-17T05:10:32.210Z,1001.5215301
2023-02-17T05:11:32.182Z,1001.5215301
2023-02-17T05:12:32.339Z,1001.419938736
2023-02-17T05:13:32.258Z,1001.5215301
2023-02-17T05:14:32.212Z,1001.623121464
2023-02-17T05:15:34.719Z,1001.5215301
2023-02-17T05:16:32.203Z,1001.419938736
2023-02-17T05:17:32.199Z,1001.5215301
2023-02-17T05:18:32.166Z,1001.5215301
2023-02-17T05:19:32.186Z,1001.419938736
2023-02-17T05:20:32.192Z,1001.5215301
2023-02-17T05:21:32.197Z,1001.419938736
2023-02-17T05:22:32.190Z,1001.216756008
2023-02-17T05:23:32.228Z,1001.724712828
2023-02-17T05:24:32.281Z,1001.1151646439998
2023-02-17T05:25:32.201Z,1001.419938736
2023-02-17T05:26:32.196Z,1001.419938736
2023-02-17T05:27:32.224Z,1001.419938736
2023-02-17T05:28:32.214Z,1001.1151646439998
2023-02-17T05:29:32.211Z,1001.419938736
2023-02-17T05:30:32.230Z,1001.419938736
2023-02-17T05:31:32.256Z,1001.419938736
2023-02-17T05:32:32.190Z,1001.5215301
2023-02-17T05:33:32.216Z,1001.216756008
2023-02-17T05:34:32.194Z,1001.318347372
2023-02-17T05:35:34.752Z,1001.5215301
2023-02-17T05:36:32.178Z,1001.318347372
2023-02-17T05:37:32.189Z,1001.01357328
2023-02-17T05:38:32.246Z,1001.5215301
2023-02-17T05:39:32.213Z,1001.318347372
2023-02-17T05:40:32.200Z,1001.1151646439998
2023-02-17T05:41:32.190Z,1001.01357328
2023-02-17T05:42:32.233Z,1001.5215301
2023-02-17T05:43:32.219Z,1001.419938736
2023-02-17T05:44:32.185Z,1001.5215301
2023-02-17T05:45:32.304Z,1001.318347372
2023-02-17T05:46:32.260Z,1001.419938736
2023-02-17T05:47:32.215Z,1001.216756008
2023-02-17T05:48:32.247Z,1001.1151646439998
2023-02-17T05:49:32.158Z,1001.216756008
2023-02-17T05:50:32.273Z,1001.1151646439998
2023-02-17T05:51:32.200Z,1000.911981916
2023-02-17T05:52:32.203Z,1000.911981916
2023-02-17T05:53:32.182Z,1000.911981916
2023-02-17T05:54:32.195Z,1001.01357328
2023-02-17T05:55:32.193Z,1000.8103905519998
2023-02-17T05:56:32.211Z,1000.708799188
2023-02-17T05:57:32.175Z,1000.911981916
2023-02-17T05:58:32.201Z,1000.911981916
2023-02-17T05:59:32.189Z,1000.708799188
2023-02-17T06:00:32.241Z,1000.8103905519998
2023-02-17T06:01:32.192Z,1000.911981916
2023-02-17T06:02:32.219Z,1000.8103905519998
2023-02-17T06:03:32.228Z,1000.8103905519998
2023-02-17T06:04:32.246Z,1000.6072078239999
2023-02-17T06:05:32.195Z,1000.8103905519998
2023-02-17T06:06:32.215Z,1000.911981916
2023-02-17T06:07:32.199Z,1000.708799188
2023-02-17T06:08:32.212Z,1000.8103905519998
2023-02-17T06:09:32.199Z,1000.6072078239999
2023-02-17T06:10:32.229Z,1000.6072078239999
2023-02-17T06:11:32.210Z,1000.911981916
2023-02-17T06:12:32.170Z,1000.708799188
2023-02-17T06:13:32.213Z,1000.6072078239999
2023-02-17T06:14:32.196Z,1000.708799188
2023-02-17T06:15:32.257Z,1000.8103905519998
2023-02-17T06:16:32.289Z,1000.6072078239999
2023-02-17T06:17:32.193Z,1000.708799188
2023-02-17T06:18:32.247Z,1000.708799188
2023-02-17T06:19:32.218Z,1000.6072078239999
2023-02-17T06:20:32.197Z,1000.8103905519998
2023-02-17T06:21:32.215Z,1000.6072078239999
2023-02-17T06:22:32.208Z,1000.8103905519998
2023-02-17T06:23:32.187Z,1000.6072078239999
2023-02-17T06:24:32.198Z,1000.708799188
2023-02-17T06:25:32.217Z,1000.8103905519998
2023-02-17T06:26:32.272Z,1000.911981916
2023-02-17T06:27:32.202Z,1000.8103905519998
2023-02-17T06:28:34.195Z,1000.708799188
2023-02-17T06:29:32.184Z,1000.8103905519998
2023-02-17T06:30:32.222Z,1000.8103905519998
2023-02-17T06:31:32.316Z,1000.708799188
2023-02-17T06:32:32.182Z,1000.6072078239999
2023-02-17T06:33:32.195Z,1000.539480248
2023-02-17T06:34:32.216Z,1000.6072078239999
2023-02-17T06:35:32.190Z,1000.539480248
2023-02-17T06:36:32.188Z,1000.708799188
2023-02-17T06:37:32.185Z,1000.6072078239999
2023-02-17T06:38:32.196Z,1000.708799188
2023-02-17T06:39:32.178Z,1000.539480248
2023-02-17T06:40:32.208Z,1000.6072078239999
2023-02-17T06:41:32.204Z,1000.6072078239999
2023-02-17T06:42:32.221Z,1000.539480248
2023-02-17T06:43:32.244Z,1000.539480248
2023-02-17T06:44:32.184Z,1000.6072078239999
2023-02-17T06:45:32.231Z,1000.2347061559999
2023-02-17T06:46:32.224Z,1000.437888884
2023-02-17T06:47:32.187Z,1000.2347061559999
2023-02-17T06:48:32.199Z,1000.539480248
2023-02-17T06:49:32.171Z,1000.437888884
2023-02-17T06:50:32.212Z,1000.2347061559999
2023-02-17T06:51:32.175Z,1000.3362975199999
2023-02-17T06:52:32.212Z,1000.133114792
2023-02-17T06:53:32.180Z,1000.2347061559999
2023-02-17T06:54:32.227Z,1000.2347061559999
2023-02-17T06:55:32.191Z,1000.539480248
2023-02-17T06:56:32.174Z,1000.133114792
2023-02-17T06:57:32.168Z,1000.437888884
2023-02-17T06:58:32.291Z,1000.2347061559999
2023-02-17T06:59:32.179Z,1000.2347061559999
2023-02-17T07:00:32.444Z,1000.2347061559999
2023-02-17T07:01:32.163Z,1000.2347061559999
2023-02-17T07:02:32.262Z,1000.133114792
2023-02-17T07:03:32.205Z,1000.2347061559999
2023-02-17T07:04:32.204Z,1000.2347061559999
2023-02-17T07:05:32.175Z,1000.0315234279999
2023-02-17T07:06:32.204Z,1000.2347061559999
2023-02-17T07:07:32.186Z,1000.0315234279999
2023-02-17T07:08:34.010Z,1000.0315234279999
2023-02-17T07:09:32.209Z,1000.0315234279999
2023-02-17T07:10:32.297Z,1000.2347061559999
2023-02-17T07:11:32.224Z,1000.2347061559999
2023-02-17T07:12:32.202Z,1000.133114792
2023-02-17T07:13:32.198Z,1000.0315234279999
2023-02-17T07:14:32.224Z,1000.3362975199999
2023-02-17T07:15:32.208Z,1000.0315234279999
2023-02-17T07:16:32.225Z,999.9299320639999
2023-02-17T07:17:32.190Z,1000.0315234279999
2023-02-17T07:18:32.242Z,999.8283407
2023-02-17T07:19:32.277Z,999.9299320639999
2023-02-17T07:20:32.199Z,1000.133114792
2023-02-17T07:21:32.203Z,1000.0315234279999
2023-02-17T07:22:32.204Z,1000.0315234279999
2023-02-17T07:23:32.196Z,999.9299320639999
2023-02-17T07:24:32.190Z,1000.0315234279999
2023-02-17T07:25:32.214Z,999.9299320639999
2023-02-17T07:26:32.189Z,999.8283407
2023-02-17T07:27:32.192Z,999.9299320639999
2023-02-17T07:28:32.170Z,999.8283407
2023-02-17T07:29:32.185Z,999.9299320639999
2023-02-17T07:30:32.337Z,999.9299320639999
2023-02-17T07:31:32.325Z,999.6251579719999
2023-02-17T07:32:32.188Z,999.8283407
2023-02-17T07:33:32.188Z,999.6251579719999
2023-02-17T07:34:32.223Z,999.6251579719999
2023-02-17T07:35:32.180Z,999.6251579719999
2023-02-17T07:36:32.181Z,999.6251579719999
2023-02-17T07:37:32.161Z,999.9299320639999
2023-02-17T07:38:33.476Z,999.6251579719999
2023-02-17T07:39:32.186Z,999.6251579719999
2023-02-17T07:40:32.187Z,999.523566608
2023-02-17T07:41:32.220Z,999.6251579719999
2023-02-17T07:42:32.161Z,999.7267493359999
2023-02-17T07:43:32.229Z,999.421975244
2023-02-17T07:44:32.185Z,999.421975244
2023-02-17T07:45:32.208Z,999.523566608
2023-02-17T07:46:32.289Z,999.6251579719999
2023-02-17T07:47:32.157Z,999.523566608
2023-02-17T07:48:32.207Z,999.523566608
2023-02-17T07:49:32.230Z,999.6251579719999
2023-02-17T07:50:32.157Z,999.6251579719999
2023-02-17T07:51:32.288Z,999.523566608
2023-02-17T07:52:32.160Z,999.32038388
2023-02-17T07:53:32.215Z,999.2187925160001
2023-02-17T07:54:32.172Z,999.2187925160001
2023-02-17T07:55:32.184Z,999.015609788
2023-02-17T07:56:32.179Z,999.421975244
2023-02-17T07:57:32.194Z,999.2187925160001
2023-02-17T07:58:32.141Z,999.32038388
2023-02-17T07:59:32.179Z,999.117201152
2023-02-17T08:00:32.156Z,999.117201152
2023-02-17T08:01:32.213Z,999.117201152
2023-02-17T08:02:32.213Z,998.9140184240001
2023-02-17T08:03:32.181Z,999.015609788
2023-02-17T08:04:32.168Z,999.015609788
2023-02-17T08:05:32.230Z,999.015609788
2023-02-17T08:06:32.173Z,999.015609788
2023-02-17T08:07:32.178Z,998.81242706
2023-02-17T08:08:32.138Z,998.9140184240001
2023-02-17T08:09:32.185Z,998.710835696
2023-02-17T08:10:32.160Z,998.710835696
2023-02-17T08:11:32.170Z,998.710835696
2023-02-17T08:12:32.184Z,998.9140184240001
2023-02-17T08:13:32.190Z,998.81242706
2023-02-17T08:14:32.171Z,998.81242706
2023-02-17T08:15:32.202Z,998.81242706
2023-02-17T08:16:32.197Z,998.710835696
2023-02-17T08:17:32.184Z,998.710835696
2023-02-17T08:18:36.243Z,998.710835696
2023-02-17T08:19:46.949Z,998.710835696
2023-02-17T08:20:34.183Z,998.81242706
2023-02-17T08:21:32.187Z,998.507652968
2023-02-17T08:22:32.152Z,998.710835696
2023-02-17T08:23:32.160Z,998.6092443319999
2023-02-17T08:24:32.194Z,998.6092443319999
2023-02-17T08:25:32.196Z,998.507652968
2023-02-17T08:26:32.213Z,998.81242706
2023-02-17T08:27:32.177Z,998.6092443319999
2023-02-17T08:28:32.165Z,998.710835696
2023-02-17T08:29:32.246Z,998.439925392
2023-02-17T08:30:32.348Z,998.710835696
2023-02-17T08:31:32.348Z,998.439925392
2023-02-17T08:32:32.219Z,998.507652968
2023-02-17T08:33:32.215Z,998.507652968
2023-02-17T08:34:32.162Z,998.3383340280001
2023-02-17T08:35:32.195Z,998.6092443319999
2023-02-17T08:36:32.226Z,998.439925392
2023-02-17T08:37:32.140Z,998.507652968
2023-02-17T08:38:32.209Z,998.439925392
2023-02-17T08:39:32.160Z,998.507652968
2023-02-17T08:40:32.198Z,998.507652968
2023-02-17T08:41:32.150Z,998.6092443319999
2023-02-17T08:42:32.180Z,998.439925392
2023-02-17T08:43:32.159Z,998.439925392
2023-02-17T08:44:32.189Z,998.439925392
2023-02-17T08:45:32.211Z,998.507652968
2023-02-17T08:46:32.189Z,998.3383340280001
2023-02-17T08:47:32.175Z,998.6092443319999
2023-02-17T08:48:32.185Z,998.6092443319999
2023-02-17T08:49:32.181Z,998.2367426640001
2023-02-17T08:50:32.226Z,998.439925392
2023-02-17T08:51:32.177Z,998.439925392
2023-02-17T08:52:32.181Z,998.439925392
2023-02-17T08:53:32.178Z,998.3383340280001
2023-02-17T08:54:32.182Z,998.439925392
2023-02-17T08:55:44.118Z,998.3383340280001
2023-02-17T08:56:32.259Z,998.439925392
2023-02-17T08:57:32.150Z,998.3383340280001
2023-02-17T08:58:32.225Z,998.3383340280001
2023-02-17T08:59:32.182Z,998.2367426640001
2023-02-17T09:00:32.203Z,998.2367426640001
2023-02-17T09:01:32.216Z,998.439925392
2023-02-17T09:02:32.196Z,998.2367426640001
2023-02-17T09:03:32.173Z,998.1351513
2023-02-17T09:04:32.212Z,997.830377208
2023-02-17T09:05:32.227Z,998.0335599360001
2023-02-17T09:06:32.171Z,998.0335599360001
2023-02-17T09:07:32.357Z,997.9319685720001
2023-02-17T09:08:32.205Z,997.830377208
2023-02-17T09:09:32.152Z,998.0335599360001
2023-02-17T09:10:32.174Z,997.9319685720001
2023-02-17T09:11:32.187Z,997.9319685720001
2023-02-17T09:12:32.254Z,997.9319685720001
2023-02-17T09:13:32.213Z,997.830377208
2023-02-17T09:14:32.188Z,998.1351513
2023-02-17T09:15:32.342Z,997.830377208
2023-02-17T09:16:32.253Z,998.0335599360001
2023-02-17T09:17:32.151Z,997.7287858440001
2023-02-17T09:18:32.241Z,997.830377208
2023-02-17T09:19:32.187Z,997.7287858440001
2023-02-17T09:20:32.162Z,997.7287858440001
2023-02-17T09:21:32.201Z,997.7287858440001
2023-02-17T09:22:32.591Z,997.830377208
2023-02-17T09:23:32.241Z,997.9319685720001
2023-02-17T09:24:32.185Z,997.7287858440001
2023-02-17T09:25:32.231Z,997.6271944800001
2023-02-17T09:26:32.265Z,997.7287858440001
2023-02-17T09:27:32.167Z,997.6271944800001
2023-02-17T09:28:32.193Z,997.525603116
2023-02-17T09:29:32.139Z,997.525603116
2023-02-17T09:30:32.212Z,997.525603116
2023-02-17T09:31:32.305Z,997.6271944800001
2023-02-17T09:32:32.286Z,997.6271944800001
2023-02-17T09:33:32.226Z,997.6271944800001
2023-02-17T09:34:32.254Z,997.525603116
2023-02-17T09:35:32.177Z,997.4240117520001
2023-02-17T09:36:32.187Z,997.4240117520001
2023-02-17T09:37:32.166Z,997.4240117520001
2023-02-17T09:38:32.170Z,997.4240117520001
2023-02-17T09:39:32.125Z,997.220829024
2023-02-17T09:40:32.218Z,997.220829024
2023-02-17T09:41:32.149Z,997.3224203880001
2023-02-17T09:42:32.166Z,997.11923766